Time;durP1;ratioP1;P1;durP2;ratioP2;P2;SDS_P1;SDS_P2;PMS_P1;PMS_P2;Temp;Humidity;BMP_temperature;BMP_pressure;BME280_temperature;BME280_humidity;BME280_pressure;Samples;Min_cycle;Max_cycle;Signal;HPM_P1;HPM_P2
2022/01/26 00:06:45;;;;;;;70.43;24.83;;;;;;;-4.66;55.59;95707.56;5012873;28;20310;-89
2022/01/26 00:09:12;;;;;;;69.33;23.30;;;;;;;-4.82;56.07;95676.09;5011768;28;20173;-89
2022/01/26 00:11:38;;;;;;;55.77;22.00;;;;;;;-4.67;56.37;95696.47;5011647;28;20597;-89
2022/01/26 00:14:11;;;;;;;50.63;21.70;;;;;;;-5.12;56.44;95614.72;5011657;28;20180;-89
2022/01/26 00:16:40;;;;;;;52.13;20.70;;;;;;;-4.62;56.20;95706.47;5011613;28;20232;-88
2022/01/26 00:19:09;;;;;;;51.63;22.13;;;;;;;-5.07;56.10;95633.19;5011935;28;20573;-89
2022/01/26 00:21:47;;;;;;;49.83;20.20;;;;;;;-4.86;56.04;95659.25;5013019;28;20620;-90
2022/01/26 00:29:23;;;;;;;54.30;23.00;;;;;;;-5.13;56.23;95636.16;5018986;28;20678;-90
2022/01/26 00:40:38;;;;;;;57.77;21.60;;;;;;;-5.30;57.44;95644.91;5019807;28;20195;-90
2022/01/26 00:43:06;;;;;;;47.20;18.87;;;;;;;-5.48;56.79;95594.75;5018930;28;20207;-91
2022/01/26 00:45:35;;;;;;;52.10;20.13;;;;;;;-5.31;57.40;95635.56;5018491;28;20176;-90
2022/01/26 00:48:05;;;;;;;47.87;18.33;;;;;;;-5.19;57.22;95645.06;5018578;28;20176;-90
2022/01/26 00:50:32;;;;;;;36.73;17.70;;;;;;;-4.99;57.10;95679.72;5019594;28;20168;-89
2022/01/26 00:52:58;;;;;;;46.37;18.90;;;;;;;-5.00;57.33;95684.03;5019555;28;20176;-90
2022/01/26 00:55:24;;;;;;;53.17;19.27;;;;;;;-5.44;57.47;95621.84;5018478;28;20176;-90
2022/01/26 00:57:49;;;;;;;50.53;20.30;;;;;;;-5.23;57.50;95678.69;5017977;28;20238;-90
2022/01/26 01:00:19;;;;;;;47.10;18.93;;;;;;;-5.74;58.03;95592.06;5018200;28;20224;-90
2022/01/26 01:02:45;;;;;;;39.90;16.40;;;;;;;-5.51;57.75;95623.97;5017872;28;20199;-90
2022/01/26 01:05:23;;;;;;;54.50;17.77;;;;;;;-5.61;57.43;95594.69;5017808;28;20592;-89
2022/01/26 01:07:55;;;;;;;53.77;17.60;;;;;;;-5.08;58.29;95673.44;5019115;28;20650;-90
2022/01/26 01:10:22;;;;;;;39.87;16.33;;;;;;;-5.05;58.05;95670.69;5017946;28;20172;-88
2022/01/26 01:12:51;;;;;;;44.17;17.40;;;;;;;-5.36;58.26;95604.22;5017607;28;20188;-89
2022/01/26 01:15:17;;;;;;;37.37;14.87;;;;;;;-5.31;57.67;95617.63;5017578;28;20706;-88
2022/01/26 01:17:51;;;;;;;30.57;14.40;;;;;;;-5.28;58.67;95609.75;5017356;28;20310;-89
2022/01/26 01:24:02;;;;;;;30.53;11.50;;;;;;;-4.65;58.13;95665.56;5000870;28;20246;-90
2022/01/26 01:26:26;;;;;;;18.60;10.20;;;;;;;-4.87;57.68;95632.75;5018928;28;20199;-90
2022/01/26 01:31:40;;;;;;;25.37;9.87;;;;;;;-4.62;57.70;95666.22;5018626;28;20168;-88
2022/01/26 01:34:03;;;;;;;28.93;9.90;;;;;;;-4.81;57.93;95636.66;5016921;28;20184;-88
2022/01/26 01:36:28;;;;;;;22.17;10.53;;;;;;;-5.07;58.06;95616.06;5013263;28;20188;-89
2022/01/26 01:38:55;;;;;;;23.37;10.53;;;;;;;-4.99;57.48;95613.81;5015363;28;20200;-89
2022/01/26 01:41:20;;;;;;;21.13;10.60;;;;;;;-4.82;58.11;95624.75;5014103;28;20643;-89
2022/01/26 01:43:46;;;;;;;32.47;12.77;;;;;;;-4.91;57.92;95602.25;5015446;28;20231;-89
2022/01/26 01:46:11;;;;;;;25.87;11.40;;;;;;;-4.90;57.14;95593.63;5015552;28;20169;-90
2022/01/26 01:48:37;;;;;;;30.10;11.40;;;;;;;-4.80;57.35;95610.09;5014338;28;20608;-90
2022/01/26 01:51:07;;;;;;;25.83;12.03;;;;;;;-4.93;57.96;95613.41;5014388;28;20176;-90
2022/01/26 01:53:41;;;;;;;26.27;11.03;;;;;;;-4.72;58.05;95646.34;5014384;28;20169;-91
2022/01/26 01:56:09;;;;;;;23.90;10.37;;;;;;;-4.95;58.00;95609.34;5014192;28;20164;-92
2022/01/26 01:58:35;;;;;;;23.57;11.90;;;;;;;-4.70;58.05;95647.91;5014216;28;20179;-90
2022/01/26 02:01:01;;;;;;;25.90;11.23;;;;;;;-5.04;57.88;95585.09;5014040;28;20183;-92
2022/01/26 02:03:26;;;;;;;22.87;12.23;;;;;;;-5.41;58.86;95519.91;5014001;28;20168;-90
2022/01/26 02:05:52;;;;;;;29.13;12.27;;;;;;;-4.70;59.39;95640.19;5015339;28;20165;-91
2022/01/26 02:08:18;;;;;;;30.77;11.93;;;;;;;-4.56;59.18;95637.56;5013896;28;20675;-92
2022/01/26 02:10:45;;;;;;;30.00;12.43;;;;;;;-5.05;59.63;95554.38;5013895;28;20183;-91
2022/01/26 02:13:19;;;;;;;35.47;16.97;;;;;;;-4.88;60.02;95578.94;5014123;28;20565;-91
2022/01/26 02:15:54;;;;;;;30.93;13.77;;;;;;;-5.00;59.97;95565.97;5013968;28;20345;-92
2022/01/26 02:53:46;;;;;;;38.20;16.97;;;;;;;-4.29;60.89;95588.66;5014887;28;20624;-90
2022/01/26 02:56:26;;;;;;;33.53;14.87;;;;;;;-4.37;60.53;95552.41;5030323;28;20176;-91
2022/01/26 03:01:46;;;;;;;35.37;16.30;;;;;;;-4.05;61.05;95619.59;5014842;28;20546;-90
2022/01/26 03:06:49;;;;;;;40.83;15.60;;;;;;;-4.48;61.18;95551.47;5015150;28;20674;-90
2022/01/26 03:09:19;;;;;;;40.13;17.13;;;;;;;-4.31;62.39;95569.13;5013557;28;20168;-91
2022/01/26 03:11:46;;;;;;;36.80;15.70;;;;;;;-4.34;60.98;95543.66;5013229;28;20710;-91
2022/01/26 03:14:24;;;;;;;36.37;15.80;;;;;;;-4.04;60.43;95581.88;5013300;28;20199;-90
2022/01/26 03:16:57;;;;;;;35.73;16.27;;;;;;;-4.22;61.14;95553.09;5011988;28;20228;-90
2022/01/26 03:19:33;;;;;;;38.83;16.97;;;;;;;-4.01;60.59;95574.78;5012917;28;20276;-90
2022/01/26 03:30:21;;;;;;;24.60;10.50;;;;;;;-3.82;60.28;95548.63;5014057;28;20163;-89
2022/01/26 03:35:29;;;;;;;19.73;9.27;;;;;;;-3.25;57.77;95604.63;5014321;28;20280;-89
2022/01/26 03:37:57;;;;;;;27.27;10.37;;;;;;;-3.50;58.08;95543.78;5012534;28;20165;-89
2022/01/26 03:40:33;;;;;;;21.27;9.63;;;;;;;-3.51;58.39;95552.44;5012531;28;20283;-91
2022/01/26 03:42:59;;;;;;;22.67;10.93;;;;;;;-3.05;57.33;95596.31;5012457;28;20165;-89
2022/01/26 03:45:25;;;;;;;19.77;9.90;;;;;;;-3.40;57.51;95536.25;5012478;28;20610;-89
2022/01/26 03:47:51;;;;;;;24.67;10.37;;;;;;;-3.35;57.13;95523.84;5012076;28;20179;-89
2022/01/26 03:50:16;;;;;;;26.27;10.37;;;;;;;-3.66;56.97;95491.78;5012558;28;20350;-89
2022/01/26 03:52:42;;;;;;;26.53;11.20;;;;;;;-3.31;57.55;95551.03;5012901;28;20184;-91
2022/01/26 03:55:07;;;;;;;29.07;13.37;;;;;;;-3.42;57.46;95508.88;5013168;28;20176;-90
2022/01/26 03:57:33;;;;;;;20.57;10.67;;;;;;;-3.30;55.73;95526.94;5012189;28;20208;-90
2022/01/26 03:59:58;;;;;;;25.67;10.03;;;;;;;-3.35;56.38;95527.25;5012525;28;20567;-91
2022/01/26 04:02:25;;;;;;;24.20;11.17;;;;;;;-3.18;56.30;95544.88;5013098;28;20231;-91
2022/01/26 04:04:56;;;;;;;20.77;10.63;;;;;;;-3.42;56.50;95541.50;5012799;28;20636;-91
2022/01/26 04:07:22;;;;;;;23.73;10.27;;;;;;;-3.46;57.20;95522.06;5012728;28;20168;-90
2022/01/26 04:09:47;;;;;;;23.77;9.60;;;;;;;-3.29;57.47;95550.00;5012688;28;20557;-91
2022/01/26 04:12:13;;;;;;;19.63;8.37;;;;;;;-3.44;55.89;95504.75;5012338;28;20180;-91
2022/01/26 04:14:40;;;;;;;19.47;9.63;;;;;;;-3.16;56.05;95561.03;5012132;28;20177;-92
2022/01/26 04:17:08;;;;;;;18.67;9.10;;;;;;;-3.40;56.76;95531.09;5012646;28;20323;-91
2022/01/26 04:19:35;;;;;;;24.00;11.43;;;;;;;-3.61;56.89;95489.69;5012182;28;20226;-90
2022/01/26 04:24:37;;;;;;;21.07;10.20;;;;;;;-3.18;56.89;95539.72;5014415;28;20161;-91
2022/01/26 04:27:25;;;;;;;18.07;9.47;;;;;;;-3.58;56.37;95490.31;5012934;28;20169;-91
2022/01/26 04:29:51;;;;;;;21.47;9.43;;;;;;;-3.41;57.06;95525.13;5013670;28;20563;-90
2022/01/26 04:32:17;;;;;;;34.07;12.13;;;;;;;-2.95;57.16;95584.44;5015999;28;20168;-91
2022/01/26 04:34:45;;;;;;;27.20;12.70;;;;;;;-3.30;57.17;95520.03;5014715;28;20184;-91
2022/01/26 04:39:51;;;;;;;21.50;9.97;;;;;;;-3.10;56.54;95519.41;5016071;28;20188;-90
2022/01/26 04:45:06;;;;;;;24.93;10.63;;;;;;;-2.58;56.01;95592.84;5015709;28;20191;-90
2022/01/26 04:47:32;;;;;;;19.83;9.50;;;;;;;-2.75;56.57;95542.56;5013136;28;20168;-90
2022/01/26 04:49:57;;;;;;;17.50;9.67;;;;;;;-3.16;55.00;95494.13;5012092;28;20635;-90
2022/01/26 04:52:23;;;;;;;18.83;8.93;;;;;;;-2.98;55.41;95512.56;5012419;28;20189;-90
2022/01/26 04:54:49;;;;;;;18.27;9.53;;;;;;;-2.84;55.71;95535.53;5011688;28;20180;-89
2022/01/26 04:57:15;;;;;;;18.63;10.27;;;;;;;-2.96;55.38;95508.13;5011743;28;20231;-89
2022/01/26 04:59:40;;;;;;;17.07;9.23;;;;;;;-2.85;55.99;95523.56;5011426;28;20647;-90
2022/01/26 05:02:06;;;;;;;21.37;10.30;;;;;;;-2.97;55.80;95500.50;5011894;28;20168;-90
2022/01/26 05:04:31;;;;;;;17.97;9.10;;;;;;;-2.80;55.82;95505.22;5011682;28;20172;-89
2022/01/26 05:06:57;;;;;;;23.80;11.33;;;;;;;-2.96;55.73;95497.81;5011655;28;20207;-90
2022/01/26 05:09:23;;;;;;;23.10;9.70;;;;;;;-2.89;55.81;95505.91;5011764;28;20168;-89
2022/01/26 05:11:51;;;;;;;19.43;9.73;;;;;;;-2.39;56.23;95582.84;5014641;28;20184;-89
2022/01/26 05:14:16;;;;;;;24.20;10.23;;;;;;;-2.63;55.79;95534.88;5015262;28;20177;-90
2022/01/26 05:16:42;;;;;;;24.70;10.93;;;;;;;-2.34;55.38;95585.09;5016990;28;20255;-89
2022/01/26 05:19:07;;;;;;;24.73;11.30;;;;;;;-2.81;56.41;95504.41;5014561;28;20271;-90
2022/01/26 05:21:33;;;;;;;39.70;13.63;;;;;;;-2.54;55.22;95539.34;5031504;28;20207;-90
2022/01/26 05:23:59;;;;;;;27.10;11.60;;;;;;;-2.66;55.26;95518.72;5015237;28;20173;-90
2022/01/26 05:26:25;;;;;;;26.03;11.60;;;;;;;-2.23;55.93;95579.94;5015086;28;20223;-90
2022/01/26 05:28:50;;;;;;;30.33;12.90;;;;;;;-2.44;55.78;95535.97;5014848;28;20184;-88
2022/01/26 05:31:16;;;;;;;33.73;14.50;;;;;;;-2.54;55.11;95514.41;5014623;28;20172;-90
2022/01/26 05:33:42;;;;;;;33.73;14.10;;;;;;;-2.26;55.04;95554.41;5032054;28;20183;-89
2022/01/26 05:36:07;;;;;;;33.03;13.20;;;;;;;-2.08;54.73;95578.81;5031294;28;20183;-89
2022/01/26 05:38:33;;;;;;;27.70;13.30;;;;;;;-2.73;55.33;95480.66;5014632;28;20563;-89
2022/01/26 05:41:01;;;;;;;27.27;11.93;;;;;;;-2.73;55.55;95483.22;5012372;28;20184;-88
2022/01/26 05:43:34;;;;;;;34.00;13.63;;;;;;;-2.64;55.88;95502.31;5014313;28;20211;-90
2022/01/26 05:46:08;;;;;;;24.13;12.60;;;;;;;-2.20;55.62;95566.81;5024399;28;20211;-87
2022/01/26 05:48:35;;;;;;;26.73;12.67;;;;;;;-2.69;56.31;95485.47;5013390;28;20631;-89
2022/01/26 05:51:08;;;;;;;27.40;12.97;;;;;;;-2.19;56.63;95553.00;5013677;28;20192;-89
2022/01/26 05:53:35;;;;;;;24.20;10.90;;;;;;;-2.31;56.03;95530.72;5007297;28;20184;-88
2022/01/26 05:56:01;;;;;;;31.50;12.87;;;;;;;-2.17;56.59;95561.44;5014487;28;20678;-90
2022/01/26 05:58:27;;;;;;;33.60;13.73;;;;;;;-2.19;57.76;95557.34;5014983;28;20172;-89
2022/01/26 06:00:52;;;;;;;40.20;15.00;;;;;;;-2.24;57.52;95537.03;5013860;28;20263;-89
2022/01/26 06:03:18;;;;;;;38.50;17.10;;;;;;;-2.19;57.60;95550.41;5013218;28;20319;-90
2022/01/26 06:05:43;;;;;;;38.13;16.00;;;;;;;-2.13;58.14;95557.69;5013624;28;20195;-88
2022/01/26 06:08:09;;;;;;;41.00;16.60;;;;;;;-2.48;58.14;95492.50;5021688;28;20180;-91
2022/01/26 06:10:35;;;;;;;41.13;15.10;;;;;;;-2.34;57.75;95507.75;5014713;28;20185;-91
2022/01/26 06:13:01;;;;;;;18.13;8.87;;;;;;;-2.25;57.95;95519.94;5013210;28;20184;-90
2022/01/26 06:15:27;;;;;;;23.43;10.57;;;;;;;-2.44;57.41;95488.78;5013449;28;20400;-90
2022/01/26 06:17:52;;;;;;;42.27;15.13;;;;;;;-2.29;57.41;95500.50;5010417;28;20228;-89
2022/01/26 06:20:18;;;;;;;36.80;13.87;;;;;;;-2.17;57.64;95509.88;5013522;28;20231;-90
2022/01/26 06:22:43;;;;;;;26.50;11.77;;;;;;;-1.82;57.65;95552.78;5013092;28;20175;-92
2022/01/26 06:25:09;;;;;;;24.67;10.10;;;;;;;-2.03;58.03;95519.94;5013349;28;20263;-89
2022/01/26 06:27:39;;;;;;;27.70;11.10;;;;;;;-1.76;58.12;95560.84;5013206;28;20230;-88
2022/01/26 06:30:06;;;;;;;27.63;11.53;;;;;;;-2.06;59.35;95498.72;5012429;28;20200;-89
2022/01/26 06:32:31;;;;;;;28.33;12.57;;;;;;;-1.99;59.63;95520.53;5012830;28;20251;-91
2022/01/26 06:34:58;;;;;;;31.10;14.60;;;;;;;-1.70;59.77;95570.69;5012663;28;20178;-91
2022/01/26 06:37:23;;;;;;;40.57;13.37;;;;;;;-2.10;59.52;95489.59;5013823;28;20250;-91
2022/01/26 06:39:48;;;;;;;31.90;13.90;;;;;;;-2.11;59.69;95483.63;5013496;28;20196;-90
2022/01/26 06:42:18;;;;;;;30.23;12.70;;;;;;;-2.16;59.88;95470.22;5012534;28;20172;-88
2022/01/26 06:45:07;;;;;;;40.27;15.43;;;;;;;-1.93;60.29;95499.44;5012729;28;20219;-90
2022/01/26 06:50:02;;;;;;;46.03;16.83;;;;;;;-1.79;61.12;95527.53;5009400;28;20707;-91
2022/01/26 06:52:27;;;;;;;36.50;14.97;;;;;;;-1.97;60.57;95480.78;5012467;28;20261;-90
2022/01/26 06:54:53;;;;;;;37.37;15.50;;;;;;;-1.61;61.39;95530.44;5013627;28;20628;-91
2022/01/26 06:57:18;;;;;;;35.10;14.90;;;;;;;-1.79;60.72;95498.34;5012847;28;20183;-92
2022/01/26 06:59:43;;;;;;;44.83;17.27;;;;;;;-1.53;61.60;95549.56;5012033;28;20223;-91
2022/01/26 07:02:09;;;;;;;39.70;16.90;;;;;;;-1.73;61.49;95513.38;5012767;28;20184;-92
2022/01/26 07:04:34;;;;;;;42.37;17.13;;;;;;;-1.40;61.49;95544.25;5011757;28;20636;-89
2022/01/26 07:06:59;;;;;;;35.97;17.40;;;;;;;-1.60;61.85;95516.59;5011339;28;20211;-89
2022/01/26 07:09:25;;;;;;;48.60;18.23;;;;;;;-1.58;62.18;95520.72;5011598;28;20180;-89
2022/01/26 07:11:50;;;;;;;36.87;16.50;;;;;;;-1.79;62.09;95485.44;5012712;28;20191;-91
2022/01/26 07:14:27;;;;;;;40.73;16.63;;;;;;;-1.71;62.83;95480.50;5013983;28;20266;-91
2022/01/26 07:20:13;;;;;;;32.37;13.73;;;;;;;-1.35;63.54;95525.81;5014443;28;20254;-90
2022/01/26 07:22:39;;;;;;;35.27;14.90;;;;;;;-1.47;63.67;95506.94;5012109;28;20267;-91
2022/01/26 07:25:05;;;;;;;29.33;11.87;;;;;;;-1.60;63.22;95473.56;5012207;28;20259;-91
2022/01/26 07:27:30;;;;;;;24.37;11.50;;;;;;;-1.52;63.40;95491.00;5032856;28;20183;-89
2022/01/26 07:29:56;;;;;;;35.13;13.77;;;;;;;-1.37;62.80;95532.84;5011896;28;20211;-91
2022/01/26 07:32:24;;;;;;;28.80;12.80;;;;;;;-1.36;63.45;95525.00;5009695;28;20177;-90
2022/01/26 07:34:49;;;;;;;30.17;13.37;;;;;;;-1.53;63.12;95479.03;5011098;28;20632;-89
2022/01/26 07:37:16;;;;;;;27.47;12.13;;;;;;;-1.53;63.07;95479.88;5012757;28;20184;-90
2022/01/26 07:39:45;;;;;;;25.63;11.93;;;;;;;-1.27;63.21;95526.84;5012978;28;20215;-92
2022/01/26 07:42:12;;;;;;;27.33;11.80;;;;;;;-1.26;63.06;95512.16;5012021;28;20238;-92
2022/01/26 07:44:37;;;;;;;23.33;10.10;;;;;;;-1.08;63.63;95535.72;5010690;28;20291;-92
2022/01/26 07:47:04;;;;;;;23.37;11.67;;;;;;;-1.32;64.17;95515.25;5011551;28;20204;-92
2022/01/26 07:49:29;;;;;;;22.23;9.03;;;;;;;-1.35;64.93;95507.75;5009875;28;20176;-91
2022/01/26 07:51:55;;;;;;;21.70;10.20;;;;;;;-1.47;65.08;95494.03;5011464;28;20176;-91
2022/01/26 07:54:21;;;;;;;24.47;10.03;;;;;;;-1.18;65.07;95541.59;5012054;28;20208;-91
2022/01/26 07:56:47;;;;;;;25.93;10.73;;;;;;;-1.21;65.52;95525.56;5011960;28;20172;-92
2022/01/26 07:59:13;;;;;;;22.60;10.40;;;;;;;-1.27;66.20;95551.84;5011864;28;20199;-92
2022/01/26 08:01:38;;;;;;;21.70;10.57;;;;;;;-1.47;67.71;95501.78;5012425;28;20192;-90
2022/01/26 08:04:05;;;;;;;21.50;10.47;;;;;;;-1.08;67.37;95556.38;5012686;28;20180;-92
2022/01/26 08:06:30;;;;;;;22.83;11.57;;;;;;;-1.34;68.57;95494.72;5012474;28;20180;-91
2022/01/26 08:08:56;;;;;;;38.10;14.57;;;;;;;-1.12;67.12;95517.03;5011572;28;20176;-89
2022/01/26 08:11:21;;;;;;;27.33;11.87;;;;;;;-0.90;66.41;95541.97;5012119;28;20184;-90
2022/01/26 08:13:47;;;;;;;27.43;11.07;;;;;;;-1.23;66.82;95486.94;5028195;28;20199;-89
2022/01/26 08:16:12;;;;;;;25.47;12.20;;;;;;;-1.03;66.35;95497.41;5011321;28;20216;-90
2022/01/26 08:18:37;;;;;;;24.33;11.07;;;;;;;-1.08;66.91;95515.03;5011364;28;20671;-89
2022/01/26 08:21:06;;;;;;;26.53;11.27;;;;;;;-1.21;66.84;95486.81;5011139;28;20242;-88
2022/01/26 08:23:32;;;;;;;24.00;11.17;;;;;;;-1.24;67.15;95468.97;5010875;28;20188;-92
2022/01/26 08:25:59;;;;;;;21.43;9.00;;;;;;;-1.03;67.05;95495.63;5012311;28;20640;-89
2022/01/26 08:28:34;;;;;;;26.50;10.93;;;;;;;-1.05;66.76;95483.81;5011455;28;20187;-87
2022/01/26 08:30:59;;;;;;;33.60;11.97;;;;;;;-1.08;67.31;95489.22;5010772;28;20180;-88
2022/01/26 08:33:25;;;;;;;29.90;12.27;;;;;;;-0.96;67.64;95498.56;5010976;28;20172;-89
2022/01/26 08:35:50;;;;;;;29.57;12.97;;;;;;;-0.78;67.79;95521.09;5012571;28;20238;-90
2022/01/26 08:38:16;;;;;;;25.80;11.43;;;;;;;-0.51;67.08;95561.16;5011031;28;20215;-90
2022/01/26 08:40:43;;;;;;;29.10;11.63;;;;;;;-0.48;66.55;95541.06;5010781;28;20572;-90
2022/01/26 08:43:09;;;;;;;29.97;11.43;;;;;;;-0.72;66.58;95490.56;5012248;28;20207;-89
2022/01/26 08:45:34;;;;;;;29.90;15.30;;;;;;;-0.59;66.86;95498.94;5014449;28;20577;-91
2022/01/26 08:48:00;;;;;;;31.30;16.30;;;;;;;-0.59;66.90;95498.94;5015116;28;20226;-89
2022/01/26 08:50:25;;;;;;;30.33;15.03;;;;;;;-0.40;66.55;95525.72;5014996;28;20188;-91
2022/01/26 08:52:51;;;;;;;23.77;12.83;;;;;;;-0.03;66.42;95582.16;5015178;28;20169;-91
2022/01/26 08:55:17;;;;;;;23.83;11.43;;;;;;;-0.63;66.51;95484.63;5013901;28;20257;-88
2022/01/26 08:57:42;;;;;;;24.47;9.23;;;;;;;-0.49;66.53;95498.03;5029260;28;20177;-87
2022/01/26 09:00:09;;;;;;;21.47;9.60;;;;;;;-0.32;66.29;95529.44;5014772;28;20262;-89
2022/01/26 09:02:36;;;;;;;22.83;10.27;;;;;;;-0.41;67.09;95518.09;5014643;28;20278;-90
2022/01/26 09:05:04;;;;;;;27.23;11.80;;;;;;;-0.20;66.86;95528.41;5015854;28;20173;-90
2022/01/26 09:07:30;;;;;;;21.53;10.17;;;;;;;-0.40;66.88;95512.78;5029755;28;20181;-90
2022/01/26 09:09:59;;;;;;;22.13;10.47;;;;;;;-0.37;66.98;95514.31;5014614;28;20176;-91
2022/01/26 09:12:26;;;;;;;20.53;9.93;;;;;;;-0.12;66.97;95555.28;5014537;28;20199;-90
2022/01/26 09:14:52;;;;;;;24.53;10.80;;;;;;;-0.25;67.55;95533.97;5011509;28;20199;-90
2022/01/26 09:17:19;;;;;;;22.43;10.13;;;;;;;-0.64;66.99;95472.66;5014515;28;20601;-91
2022/01/26 09:19:46;;;;;;;23.03;11.90;;;;;;;-0.25;66.70;95520.22;5014366;28;20204;-91
2022/01/26 09:22:14;;;;;;;26.03;11.20;;;;;;;0.28;66.52;95601.09;5014415;28;20231;-89
2022/01/26 09:24:41;;;;;;;26.07;10.73;;;;;;;-0.29;66.12;95513.66;5004328;28;20567;-89
2022/01/26 09:27:08;;;;;;;26.87;12.37;;;;;;;-0.01;66.54;95551.81;5015323;28;20184;-89
2022/01/26 09:29:35;;;;;;;24.27;11.83;;;;;;;0.27;66.73;95597.69;5014789;28;20169;-88
2022/01/26 09:32:01;;;;;;;20.53;11.53;;;;;;;0.34;66.67;95588.47;5009765;28;20177;-86
2022/01/26 09:34:29;;;;;;;26.07;12.90;;;;;;;0.46;66.75;95584.00;5013687;28;20180;-88
2022/01/26 09:36:55;;;;;;;159.17;46.13;;;;;;;0.33;65.53;95578.25;5013735;28;20184;-90
2022/01/26 09:39:22;;;;;;;23.73;10.30;;;;;;;-0.15;66.44;95513.31;5014773;28;20667;-87
2022/01/26 09:41:49;;;;;;;25.97;11.77;;;;;;;-0.03;66.68;95517.47;5029911;28;20184;-87
2022/01/26 09:44:16;;;;;;;26.43;12.10;;;;;;;-0.06;66.23;95478.91;5014908;28;20626;-89
2022/01/26 09:46:43;;;;;;;21.30;10.03;;;;;;;0.31;65.33;95524.00;5014699;28;20655;-87
2022/01/26 09:49:09;;;;;;;17.70;9.20;;;;;;;0.03;65.98;95466.97;5014436;28;20196;-86
2022/01/26 09:51:41;;;;;;;17.67;9.00;;;;;;;0.49;65.29;95505.25;5014017;28;20623;-85
2022/01/26 09:54:11;;;;;;;24.40;10.83;;;;;;;0.75;64.87;95534.88;5011956;28;20263;-85
2022/01/26 09:56:37;;;;;;;16.10;9.67;;;;;;;0.86;65.13;95542.53;5012251;28;20552;-87
2022/01/26 09:59:02;;;;;;;20.27;9.80;;;;;;;0.75;65.10;95506.38;5013007;28;20294;-86
2022/01/26 10:01:45;;;;;;;22.57;12.00;;;;;;;1.02;64.63;95537.63;5012894;28;20187;-87
2022/01/26 10:04:29;;;;;;;29.17;13.20;;;;;;;1.02;64.12;95524.69;5012279;28;20266;-89
2022/01/26 10:09:50;;;;;;;22.90;10.73;;;;;;;1.09;63.60;95517.97;5014799;28;20184;-86
2022/01/26 10:18:10;;;;;;;30.13;13.83;;;;;;;1.36;64.20;95535.44;5014128;28;20234;-92
2022/01/26 10:20:52;;;;;;;30.93;13.73;;;;;;;1.49;63.80;95554.13;5012465;28;20199;-89
2022/01/26 10:23:24;;;;;;;25.97;11.53;;;;;;;1.20;64.01;95516.22;5012997;28;20191;-92
2022/01/26 10:26:08;;;;;;;23.00;11.20;;;;;;;1.45;63.74;95557.13;5026862;28;20176;-90
2022/01/26 10:28:53;;;;;;;19.90;10.77;;;;;;;1.46;64.03;95548.41;5029438;28;20556;-91
2022/01/26 10:31:25;;;;;;;29.40;13.27;;;;;;;1.28;64.41;95529.31;5011628;28;20640;-88
2022/01/26 10:34:02;;;;;;;20.73;11.37;;;;;;;1.04;65.52;95494.22;5013591;28;20172;-89
2022/01/26 10:36:42;;;;;;;19.13;9.97;;;;;;;0.86;66.30;95477.75;5011857;28;20745;-85
2022/01/26 10:39:28;;;;;;;18.43;10.07;;;;;;;1.13;67.05;95532.28;5013315;28;20588;-89
2022/01/26 10:42:00;;;;;;;15.90;9.27;;;;;;;0.93;67.29;95489.19;5011378;28;20191;-88
2022/01/26 10:45:01;;;;;;;22.77;12.60;;;;;;;1.03;66.92;95494.41;5010458;28;20258;-88
2022/01/26 10:47:34;;;;;;;24.23;12.70;;;;;;;1.28;67.67;95535.31;5011285;28;20180;-87
2022/01/26 10:52:54;;;;;;;22.17;10.40;;;;;;;1.23;67.00;95510.72;5015883;28;20250;-89
2022/01/26 10:55:20;;;;;;;27.37;11.27;;;;;;;0.89;68.05;95469.69;5011086;28;20191;-87
2022/01/26 10:57:46;;;;;;;23.27;11.43;;;;;;;0.76;68.21;95432.88;5006702;28;20184;-88
2022/01/26 11:00:12;;;;;;;24.10;11.00;;;;;;;0.91;67.46;95452.22;5012177;28;20299;-87
2022/01/26 11:02:40;;;;;;;26.63;12.03;;;;;;;1.08;66.92;95477.47;5008977;28;20181;-88
2022/01/26 11:05:06;;;;;;;977.07;441.30;;;;;;;1.24;68.91;95497.63;5006886;28;20184;-86
2022/01/26 11:07:40;;;;;;;95.97;21.43;;;;;;;1.48;67.77;95530.91;5012103;28;20254;-88
2022/01/26 11:10:07;;;;;;;72.07;43.47;;;;;;;0.83;68.03;95446.91;5011612;28;20237;-87
2022/01/26 11:12:37;;;;;;;328.80;155.43;;;;;;;1.23;68.17;95508.13;5013671;28;20187;-87
2022/01/26 11:15:04;;;;;;;588.73;175.70;;;;;;;1.02;68.42;95454.69;5011701;28;20180;-86
2022/01/26 11:17:34;;;;;;;160.13;88.30;;;;;;;1.51;68.22;95521.09;5007119;28;20224;-86
2022/01/26 11:20:13;;;;;;;25.97;13.33;;;;;;;1.41;67.60;95514.28;5008982;28;20211;-86
2022/01/26 11:22:55;;;;;;;37.50;22.80;;;;;;;1.06;68.30;95450.03;5008997;28;20203;-85
2022/01/26 11:25:22;;;;;;;182.57;79.27;;;;;;;1.18;67.93;95461.09;5012888;28;20184;-83
2022/01/26 11:27:49;;;;;;;442.10;46.73;;;;;;;1.17;67.42;95459.44;5012270;28;20572;-87
2022/01/26 11:30:16;;;;;;;279.00;107.30;;;;;;;1.39;69.00;95517.00;5006516;28;20191;-86
2022/01/26 11:32:58;;;;;;;165.03;50.50;;;;;;;1.27;69.39;95512.94;5008725;28;20271;-86
2022/01/26 11:35:32;;;;;;;1258.50;548.27;;;;;;;1.14;68.44;95484.69;5007788;28;20238;-86
2022/01/26 11:38:06;;;;;;;1568.53;757.47;;;;;;;1.12;69.27;95489.19;5002972;28;21039;-86
2022/01/26 11:46:31;;;;;;;1718.63;802.70;;;;;;;1.20;69.45;95461.78;4997217;28;20195;-86
2022/01/26 11:49:05;;;;;;;1633.10;776.10;;;;;;;1.49;69.04;95501.44;4999834;28;20185;-85
2022/01/26 11:51:48;;;;;;;1356.10;442.70;;;;;;;1.51;69.61;95497.75;5016232;28;20276;-87
2022/01/26 11:54:19;;;;;;;824.80;376.20;;;;;;;1.55;68.94;95498.28;5001908;28;20192;-86
2022/01/26 11:57:07;;;;;;;1169.13;351.17;;;;;;;1.59;69.13;95497.03;5018405;28;20188;-86
2022/01/26 11:59:35;;;;;;;868.47;385.23;;;;;;;1.34;69.14;95459.56;5004231;28;20197;-85
2022/01/26 12:02:05;;;;;;;1193.13;443.17;;;;;;;1.28;69.22;95447.16;5024045;28;20180;-85
2022/01/26 12:04:33;;;;;;;869.10;478.20;;;;;;;0.98;70.02;95414.44;5004204;28;20783;-85
2022/01/26 12:07:10;;;;;;;1053.57;556.90;;;;;;;1.49;70.73;95499.66;5007293;28;20187;-84
2022/01/26 12:09:39;;;;;;;1031.77;627.53;;;;;;;1.05;70.96;95425.06;5003859;28;20176;-85
2022/01/26 12:12:05;;;;;;;1356.93;687.07;;;;;;;1.00;71.00;95440.22;5005455;28;20187;-86
2022/01/26 12:14:33;;;;;;;835.03;405.00;;;;;;;1.17;71.75;95499.16;5007834;28;20199;-86
2022/01/26 12:17:01;;;;;;;436.60;260.57;;;;;;;0.68;72.86;95450.88;5002608;28;20322;-85
2022/01/26 12:19:49;;;;;;;791.87;245.37;;;;;;;0.62;73.60;95447.03;5008609;28;20198;-86
2022/01/26 12:41:09;;;;;;;1999.90;999.90;;;;;;;0.54;74.15;95422.78;5011681;28;20257;-86
2022/01/26 12:42:16;;;;;;;1107.40;481.07;;;;;;;0.79;74.24;95439.53;5012051;28;20172;-86
2022/01/26 12:44:41;;;;;;;1999.90;999.90;;;;;;;0.67;73.28;95423.34;5011314;28;20222;-86
2022/01/26 12:47:06;;;;;;;1523.70;727.30;;;;;;;0.88;73.11;95444.72;5020730;28;20176;-88
2022/01/26 12:49:32;;;;;;;1186.87;494.87;;;;;;;0.89;73.18;95428.22;5011500;28;20226;-86
2022/01/26 12:51:58;;;;;;;1207.93;410.23;;;;;;;0.97;72.54;95451.69;5011360;28;20185;-86
2022/01/26 12:54:26;;;;;;;1999.90;999.90;;;;;;;0.93;72.65;95436.56;5011461;28;20204;-85
2022/01/26 12:57:02;;;;;;;1999.90;999.90;;;;;;;0.93;73.32;95423.59;5011418;28;20188;-86
2022/01/26 12:59:27;;;;;;;1999.90;999.90;;;;;;;0.68;71.70;95399.88;5011768;28;20204;-85
2022/01/26 13:01:54;;;;;;;1514.50;734.63;;;;;;;1.19;73.18;95478.28;5018095;28;20185;-85
2022/01/26 13:04:19;;;;;;;1999.90;999.90;;;;;;;0.97;72.60;95435.31;5011138;28;20180;-85
2022/01/26 13:06:54;;;;;;;1002.13;437.53;;;;;;;1.06;72.45;95434.47;5010020;28;20184;-85
2022/01/26 13:09:27;;;;;;;1999.90;999.90;;;;;;;1.30;71.73;95463.38;5008572;28;20679;-86
2022/01/26 13:11:55;;;;;;;1999.90;999.90;;;;;;;1.26;71.68;95468.97;5011046;28;20180;-85
2022/01/26 13:14:46;;;;;;;1999.90;999.90;;;;;;;1.29;71.81;95453.97;5010476;28;20613;-86
2022/01/26 13:40:52;;;;;;;1567.63;743.63;;;;;;;0.86;72.71;95402.59;5010479;28;20207;-84
2022/01/26 13:46:38;;;;;;;1999.90;999.90;;;;;;;1.00;72.78;95406.53;5009606;28;20168;-85
2022/01/26 13:51:44;;;;;;;1999.90;999.90;;;;;;;1.06;71.63;95409.38;5013318;28;20172;-85
2022/01/26 14:01:50;;;;;;;1999.90;999.90;;;;;;;1.17;71.88;95413.59;5014004;28;20216;-85
2022/01/26 14:04:16;;;;;;;1999.90;999.90;;;;;;;1.25;71.42;95431.88;5011519;28;20189;-85
2022/01/26 14:06:43;;;;;;;1999.90;999.90;;;;;;;1.33;71.74;95433.75;5011409;28;20266;-85